createdAt,value
2019-03-15T00:00:42.437Z,94.37
2019-03-15T00:01:42.430Z,94.37
2019-03-15T00:02:42.417Z,94.27
2019-03-15T00:03:42.413Z,94.27
2019-03-15T00:04:42.396Z,94.27
2019-03-15T00:05:42.405Z,94.37
2019-03-15T00:06:42.379Z,93.65
2019-03-15T00:07:42.364Z,93.85
2019-03-15T00:08:42.354Z,94.06
2019-03-15T00:09:42.390Z,93.85
2019-03-15T00:10:42.355Z,93.85
2019-03-15T00:11:42.347Z,93.96
2019-03-15T00:12:42.314Z,93.91
2019-03-15T00:13:42.309Z,94.12
2019-03-15T00:14:42.316Z,93.91
2019-03-15T00:15:42.290Z,93.81
2019-03-15T00:16:42.273Z,94.23
2019-03-15T00:17:42.300Z,94.23
2019-03-15T00:18:42.275Z,94.02
2019-03-15T00:19:42.250Z,93.81
2019-03-15T00:20:42.229Z,93.91
2019-03-15T00:21:42.223Z,93.50
2019-03-15T00:22:42.215Z,93.46
2019-03-15T00:23:42.220Z,93.40
2019-03-15T00:24:42.200Z,93.29
2019-03-15T00:25:42.183Z,92.94
2019-03-15T00:26:42.173Z,93.35
2019-03-15T00:27:42.193Z,93.15
2019-03-15T00:28:42.174Z,92.74
2019-03-15T00:29:42.167Z,93.46
2019-03-15T00:30:42.692Z,93.15
2019-03-15T00:31:42.136Z,92.84
2019-03-15T00:32:42.115Z,92.53
2019-03-15T00:33:42.106Z,92.84
2019-03-15T00:34:42.716Z,92.49
2019-03-15T00:35:42.100Z,92.38
2019-03-15T00:36:42.074Z,92.38
2019-03-15T00:37:42.066Z,91.86
2019-03-15T00:38:42.053Z,92.18
2019-03-15T00:39:42.037Z,92.18
2019-03-15T00:40:42.657Z,92.49
2019-03-15T00:41:42.033Z,92.59
2019-03-15T00:42:42.006Z,92.22
2019-03-15T00:43:42.001Z,92.59
2019-03-15T00:44:41.983Z,92.07
2019-03-15T00:45:41.987Z,92.28
2019-03-15T00:46:41.968Z,92.59
2019-03-15T00:47:41.976Z,92.49
2019-03-15T00:48:41.944Z,92.59
2019-03-15T00:49:41.933Z,92.18
2019-03-15T00:50:41.927Z,92.18
2019-03-15T00:51:41.931Z,91.55
2019-03-15T00:52:41.914Z,91.55
2019-03-15T00:53:41.922Z,91.55
2019-03-15T00:54:41.886Z,91.24
2019-03-15T00:55:41.899Z,91.66
2019-03-15T00:56:41.868Z,91.61
2019-03-15T00:57:41.854Z,91.41
2019-03-15T00:58:41.838Z,91.55
2019-03-15T00:59:41.848Z,91.72
2019-03-15T01:00:41.819Z,90.99
2019-03-15T01:01:41.833Z,90.68
2019-03-15T01:02:44.265Z,90.58
2019-03-15T01:03:41.791Z,91.41
2019-03-15T01:04:41.777Z,90.89
2019-03-15T01:05:41.793Z,91.09
2019-03-15T01:06:41.762Z,91.05
2019-03-15T01:07:41.749Z,91.09
2019-03-15T01:08:41.746Z,90.99
2019-03-15T01:09:41.729Z,90.58
2019-03-15T01:10:41.730Z,90.58
2019-03-15T01:11:41.725Z,90.99
2019-03-15T01:12:41.700Z,90.95
2019-03-15T01:13:41.686Z,91.05
2019-03-15T01:14:41.685Z,90.99
2019-03-15T01:15:41.746Z,91.09
2019-03-15T01:16:41.655Z,90.84
2019-03-15T01:17:41.666Z,90.06
2019-03-15T01:18:41.638Z,90.84
2019-03-15T01:19:41.632Z,90.58
2019-03-15T01:20:41.614Z,90.95
2019-03-15T01:21:41.609Z,89.92
2019-03-15T01:22:41.597Z,89.71
2019-03-15T01:23:41.616Z,90.02
2019-03-15T01:24:48.166Z,90.02
2019-03-15T01:25:41.566Z,90.44
2019-03-15T01:26:41.588Z,90.23
2019-03-15T01:27:41.545Z,89.61
2019-03-15T01:28:41.532Z,90.95
2019-03-15T01:29:41.545Z,90.74
2019-03-15T01:30:41.513Z,90.64
2019-03-15T01:31:41.506Z,90.64
2019-03-15T01:32:41.491Z,90.95
2019-03-15T01:33:41.499Z,90.12
2019-03-15T01:34:41.474Z,90.02
2019-03-15T01:35:41.483Z,90.33
2019-03-15T01:36:41.457Z,89.81
2019-03-15T01:37:41.451Z,89.61
2019-03-15T01:38:41.444Z,89.67
2019-03-15T01:39:41.421Z,89.36
2019-03-15T01:40:41.413Z,89.67
2019-03-15T01:41:41.441Z,89.15
2019-03-15T01:42:41.388Z,89.25
2019-03-15T01:43:41.384Z,89.87
2019-03-15T01:44:41.367Z,88.84
2019-03-15T01:45:41.364Z,89.25
2019-03-15T01:46:41.359Z,88.94
2019-03-15T01:47:41.349Z,89.46
2019-03-15T01:48:42.152Z,89.36
2019-03-15T01:49:44.399Z,89.46
2019-03-15T01:50:41.304Z,89.15
2019-03-15T01:51:41.541Z,88.94
2019-03-15T01:52:41.284Z,88.94
2019-03-15T01:53:41.298Z,89.77
2019-03-15T01:54:41.263Z,88.94
2019-03-15T01:55:41.256Z,89.04
2019-03-15T01:56:41.246Z,88.94
2019-03-15T01:57:41.233Z,89.15
2019-03-15T01:58:41.229Z,89.77
2019-03-15T01:59:41.235Z,89.36
2019-03-15T02:00:41.210Z,89.46
2019-03-15T02:01:41.202Z,89.15
2019-03-15T02:02:41.183Z,88.84
2019-03-15T02:03:41.173Z,88.43
2019-03-15T02:04:41.169Z,88.94
2019-03-15T02:05:41.176Z,88.84
2019-03-15T02:06:41.143Z,88.74
2019-03-15T02:07:41.134Z,88.32
2019-03-15T02:08:41.123Z,88.64
2019-03-15T02:09:41.114Z,88.53
2019-03-15T02:10:41.096Z,88.43
2019-03-15T02:11:41.101Z,88.64
2019-03-15T02:12:41.080Z,88.64
2019-03-15T02:13:41.094Z,88.84
2019-03-15T02:14:41.060Z,88.94
2019-03-15T02:15:41.047Z,89.25
2019-03-15T02:16:41.041Z,89.25
2019-03-15T02:17:41.046Z,89.15
2019-03-15T02:18:41.021Z,88.94
2019-03-15T02:19:41.021Z,88.43
2019-03-15T02:20:40.989Z,88.32
2019-03-15T02:21:40.986Z,88.32
2019-03-15T02:22:40.969Z,89.04
2019-03-15T02:23:40.989Z,88.74
2019-03-15T02:24:40.971Z,88.53
2019-03-15T02:25:40.937Z,88.74
2019-03-15T02:26:40.938Z,88.94
2019-03-15T02:27:40.920Z,88.64
2019-03-15T02:28:40.911Z,88.53
2019-03-15T02:29:40.916Z,88.32
2019-03-15T02:30:40.886Z,88.53
2019-03-15T02:31:40.883Z,88.32
2019-03-15T02:32:40.892Z,88.84
2019-03-15T02:33:40.855Z,88.94
2019-03-15T02:34:40.847Z,88.94
2019-03-15T02:35:40.852Z,89.15
2019-03-15T02:36:40.824Z,87.70
2019-03-15T02:37:40.861Z,88.64
2019-03-15T02:38:40.828Z,88.43
2019-03-15T02:39:40.794Z,88.84
2019-03-15T02:40:40.807Z,87.25
2019-03-15T02:41:40.795Z,87.91
2019-03-15T02:42:40.773Z,88.74
2019-03-15T02:43:40.754Z,88.01
2019-03-15T02:44:40.741Z,88.01
2019-03-15T02:45:40.753Z,87.91
2019-03-15T02:46:40.726Z,87.70
2019-03-15T02:47:40.754Z,88.01
2019-03-15T02:48:41.088Z,87.35
2019-03-15T02:49:40.697Z,87.60
2019-03-15T02:50:40.681Z,87.60
2019-03-15T02:51:40.668Z,88.43
2019-03-15T02:52:42.276Z,88.12
2019-03-15T02:53:40.675Z,88.74
2019-03-15T02:54:40.630Z,88.64
2019-03-15T02:55:40.620Z,88.57
2019-03-15T02:56:40.608Z,88.57
2019-03-15T02:57:40.628Z,88.36
2019-03-15T02:58:40.585Z,88.88
2019-03-15T02:59:40.594Z,88.67
2019-03-15T03:00:41.169Z,88.98
2019-03-15T03:01:40.576Z,89.29
2019-03-15T03:02:40.544Z,89.40
2019-03-15T03:03:40.537Z,89.61
2019-03-15T03:04:41.094Z,89.61
2019-03-15T03:05:40.533Z,89.61
2019-03-15T03:06:40.510Z,89.29
2019-03-15T03:07:40.513Z,89.09
2019-03-15T03:08:41.288Z,88.94
2019-03-15T03:09:40.481Z,89.19
2019-03-15T03:10:40.461Z,89.29
2019-03-15T03:11:40.468Z,89.29
2019-03-15T03:12:40.443Z,88.94
2019-03-15T03:13:40.431Z,89.09
2019-03-15T03:14:40.421Z,88.98
2019-03-15T03:15:40.432Z,88.98
2019-03-15T03:16:40.403Z,89.09
2019-03-15T03:17:40.520Z,88.98
2019-03-15T03:18:40.379Z,89.19
2019-03-15T03:19:40.390Z,89.61
2019-03-15T03:20:40.401Z,89.29
2019-03-15T03:21:40.400Z,88.67
2019-03-15T03:22:40.348Z,89.19
2019-03-15T03:23:40.356Z,88.78
2019-03-15T03:24:40.347Z,88.88
2019-03-15T03:25:40.311Z,89.19
2019-03-15T03:26:40.511Z,89.04
2019-03-15T03:27:40.302Z,88.98
2019-03-15T03:28:40.280Z,89.19
2019-03-15T03:29:40.291Z,88.98
2019-03-15T03:30:40.268Z,89.19
2019-03-15T03:31:40.412Z,89.29
2019-03-15T03:32:42.926Z,89.19
2019-03-15T03:33:40.937Z,89.29
2019-03-15T03:34:40.781Z,89.81
2019-03-15T03:35:40.224Z,89.29
2019-03-15T03:36:40.195Z,89.29
2019-03-15T03:37:40.183Z,88.88
2019-03-15T03:38:40.184Z,89.19
2019-03-15T03:39:40.165Z,89.09
2019-03-15T03:40:40.154Z,88.46
2019-03-15T03:41:40.180Z,88.36
2019-03-15T03:42:40.155Z,88.78
2019-03-15T03:43:40.126Z,88.67
2019-03-15T03:44:40.113Z,89.09
2019-03-15T03:45:40.103Z,88.78
2019-03-15T03:46:40.094Z,88.46
2019-03-15T03:47:40.117Z,88.98
2019-03-15T03:48:40.076Z,89.09
2019-03-15T03:49:40.061Z,89.19
2019-03-15T03:50:40.072Z,88.88
2019-03-15T03:51:40.043Z,88.57
2019-03-15T03:52:41.693Z,89.09
2019-03-15T03:53:40.050Z,89.09
2019-03-15T03:54:40.014Z,89.40
2019-03-15T03:55:40.002Z,89.19
2019-03-15T03:56:40.005Z,89.54
2019-03-15T03:57:39.993Z,88.98
2019-03-15T03:58:39.966Z,88.57
2019-03-15T03:59:39.982Z,88.40
2019-03-15T04:00:39.952Z,88.36
2019-03-15T04:01:39.944Z,88.88
2019-03-15T04:02:39.935Z,88.16
2019-03-15T04:03:39.916Z,88.57
2019-03-15T04:04:39.924Z,88.78
2019-03-15T04:05:39.914Z,88.71
2019-03-15T04:06:39.884Z,88.67
2019-03-15T04:07:39.878Z,88.67
2019-03-15T04:08:39.866Z,88.61
2019-03-15T04:09:40.194Z,88.98
2019-03-15T04:10:39.843Z,88.46
2019-03-15T04:11:39.854Z,88.82
2019-03-15T04:12:39.823Z,88.82
2019-03-15T04:13:39.813Z,88.16
2019-03-15T04:14:39.807Z,88.78
2019-03-15T04:15:39.794Z,88.26
2019-03-15T04:16:39.788Z,88.36
2019-03-15T04:17:39.790Z,88.98
2019-03-15T04:18:39.762Z,88.78
2019-03-15T04:19:39.758Z,88.88
2019-03-15T04:20:39.744Z,88.67
2019-03-15T04:21:39.737Z,88.78
2019-03-15T04:22:39.744Z,87.64
2019-03-15T04:23:39.747Z,87.33
2019-03-15T04:24:39.704Z,87.74
2019-03-15T04:25:40.660Z,87.95
2019-03-15T04:26:39.698Z,87.95
2019-03-15T04:27:39.672Z,88.06
2019-03-15T04:28:39.663Z,87.64
2019-03-15T04:29:39.720Z,87.85
2019-03-15T04:30:39.642Z,88.98
2019-03-15T04:31:39.638Z,88.78
2019-03-15T04:32:39.623Z,88.26
2019-03-15T04:33:39.621Z,88.98
2019-03-15T04:34:39.620Z,88.36
2019-03-15T04:35:39.608Z,88.88
2019-03-15T04:36:39.599Z,89.61
2019-03-15T04:37:39.573Z,89.40
2019-03-15T04:38:39.560Z,89.40
2019-03-15T04:39:39.558Z,90.02
2019-03-15T04:40:39.540Z,89.81
2019-03-15T04:41:39.545Z,89.92
2019-03-15T04:42:39.518Z,89.81
2019-03-15T04:43:39.516Z,89.81
2019-03-15T04:44:39.498Z,90.02
2019-03-15T04:45:39.486Z,89.71
2019-03-15T04:46:39.483Z,90.33
2019-03-15T04:47:39.561Z,90.23
2019-03-15T04:48:39.458Z,90.84
2019-03-15T04:49:39.445Z,90.53
2019-03-15T04:50:39.451Z,89.81
2019-03-15T04:51:39.434Z,89.61
2019-03-15T04:52:39.414Z,90.95
2019-03-15T04:53:39.430Z,90.44
2019-03-15T04:54:39.396Z,90.12
2019-03-15T04:55:39.394Z,90.95
2019-03-15T04:56:39.407Z,89.92
2019-03-15T04:57:39.391Z,90.12
2019-03-15T04:58:39.363Z,90.84
2019-03-15T04:59:39.363Z,90.12
2019-03-15T05:00:39.334Z,91.26
2019-03-15T05:01:39.347Z,90.53
2019-03-15T05:02:39.313Z,91.05
2019-03-15T05:03:39.305Z,90.64
2019-03-15T05:04:39.292Z,91.16
2019-03-15T05:05:39.309Z,91.05
2019-03-15T05:06:39.277Z,91.57
2019-03-15T05:07:39.266Z,91.57
2019-03-15T05:08:39.255Z,91.99
2019-03-15T05:09:39.245Z,92.30
2019-03-15T05:10:39.234Z,92.81
2019-03-15T05:11:39.240Z,92.81
2019-03-15T05:12:39.220Z,92.71
2019-03-15T05:13:39.200Z,92.30
2019-03-15T05:14:39.198Z,92.71
2019-03-15T05:15:39.182Z,92.91
2019-03-15T05:16:39.179Z,92.91
2019-03-15T05:17:39.180Z,92.81
2019-03-15T05:18:39.151Z,92.50
2019-03-15T05:19:39.143Z,93.02
2019-03-15T05:20:39.139Z,93.54
2019-03-15T05:21:39.124Z,93.33
2019-03-15T05:22:39.116Z,93.95
2019-03-15T05:23:39.151Z,93.74
2019-03-15T05:24:39.103Z,93.85
2019-03-15T05:25:39.088Z,93.33
2019-03-15T05:26:39.070Z,93.54
2019-03-15T05:27:39.058Z,93.54
2019-03-15T05:28:39.052Z,93.74
2019-03-15T05:29:39.057Z,93.43
2019-03-15T05:30:39.032Z,93.74
2019-03-15T05:31:39.019Z,93.85
2019-03-15T05:32:39.008Z,94.06
2019-03-15T05:33:39.003Z,94.47
2019-03-15T05:34:38.986Z,94.78
2019-03-15T05:35:38.991Z,94.06
2019-03-15T05:36:39.072Z,93.95
2019-03-15T05:37:38.956Z,94.16
2019-03-15T05:38:38.950Z,94.68
2019-03-15T05:39:38.935Z,94.78
2019-03-15T05:40:38.928Z,94.57
2019-03-15T05:41:38.935Z,94.78
2019-03-15T05:42:38.932Z,94.78
2019-03-15T05:43:38.901Z,94.78
2019-03-15T05:44:38.886Z,94.78
2019-03-15T05:45:38.880Z,94.57
2019-03-15T05:46:38.861Z,94.16
2019-03-15T05:47:38.867Z,94.16
2019-03-15T05:48:38.844Z,94.26
2019-03-15T05:49:38.830Z,94.89
2019-03-15T05:50:40.748Z,94.22
2019-03-15T05:51:38.817Z,94.16
2019-03-15T05:52:38.800Z,94.06
2019-03-15T05:53:38.808Z,94.06
2019-03-15T05:54:38.778Z,94.89
2019-03-15T05:55:38.773Z,94.89
2019-03-15T05:56:38.760Z,95.09
2019-03-15T05:57:38.751Z,94.89
2019-03-15T05:58:38.738Z,94.98
2019-03-15T05:59:38.747Z,95.09
2019-03-15T06:00:38.717Z,94.47
2019-03-15T06:01:38.711Z,95.19
2019-03-15T06:02:38.706Z,94.78
2019-03-15T06:03:48.402Z,94.98
2019-03-15T06:04:39.694Z,95.19
2019-03-15T06:05:38.682Z,95.19
2019-03-15T06:06:38.662Z,95.50
2019-03-15T06:07:38.648Z,95.40
2019-03-15T06:08:38.636Z,95.19
2019-03-15T06:09:38.625Z,95.40
2019-03-15T06:10:38.648Z,95.50
2019-03-15T06:11:38.613Z,94.98
2019-03-15T06:12:38.597Z,95.36
2019-03-15T06:13:38.593Z,95.29
2019-03-15T06:14:38.578Z,95.19
2019-03-15T06:15:38.564Z,95.19
2019-03-15T06:16:38.568Z,95.46
2019-03-15T06:17:38.557Z,94.94
2019-03-15T06:18:38.530Z,95.87
2019-03-15T06:19:38.536Z,96.19
2019-03-15T06:20:38.513Z,95.67
2019-03-15T06:21:38.496Z,95.46
2019-03-15T06:22:38.501Z,95.81
2019-03-15T06:23:38.486Z,96.44
2019-03-15T06:24:38.463Z,96.29
2019-03-15T06:25:38.454Z,96.29
2019-03-15T06:26:38.443Z,96.29
2019-03-15T06:27:38.430Z,96.29
2019-03-15T06:28:38.453Z,96.19
2019-03-15T06:29:38.410Z,96.19
2019-03-15T06:30:38.405Z,96.59
2019-03-15T06:31:38.388Z,96.39
2019-03-15T06:32:38.377Z,97.11
2019-03-15T06:33:38.375Z,96.91
2019-03-15T06:34:39.596Z,97.11
2019-03-15T06:35:38.346Z,96.97
2019-03-15T06:36:38.337Z,97.11
2019-03-15T06:37:38.325Z,97.32
2019-03-15T06:38:38.343Z,97.42
2019-03-15T06:39:38.310Z,97.32
2019-03-15T06:40:38.312Z,97.07
2019-03-15T06:41:38.284Z,97.53
2019-03-15T06:42:38.283Z,97.74
2019-03-15T06:43:38.269Z,98.05
2019-03-15T06:44:38.252Z,97.94
2019-03-15T06:45:41.571Z,97.42
2019-03-15T06:46:38.248Z,97.79
2019-03-15T06:47:38.218Z,97.94
2019-03-15T06:48:38.209Z,97.74
2019-03-15T06:49:38.204Z,97.79
2019-03-15T06:50:38.186Z,97.79
2019-03-15T06:51:38.176Z,98.00
2019-03-15T06:52:38.203Z,97.79
2019-03-15T06:53:38.162Z,97.79
2019-03-15T06:54:38.145Z,97.89
2019-03-15T06:55:38.137Z,97.69
2019-03-15T06:56:38.128Z,97.89
2019-03-15T06:57:38.120Z,97.69
2019-03-15T06:58:38.121Z,97.89
2019-03-15T06:59:38.094Z,97.89
2019-03-15T07:00:38.087Z,98.21
2019-03-15T07:01:38.080Z,97.89
2019-03-15T07:02:38.080Z,97.69
2019-03-15T07:03:38.050Z,98.00
2019-03-15T07:04:38.119Z,98.06
2019-03-15T07:05:38.024Z,98.00
2019-03-15T07:06:38.077Z,97.96
2019-03-15T07:07:38.007Z,98.10
2019-03-15T07:08:37.997Z,97.96
2019-03-15T07:09:38.507Z,97.96
2019-03-15T07:10:37.994Z,98.62
2019-03-15T07:11:37.967Z,97.54
2019-03-15T07:12:40.225Z,98.62
2019-03-15T07:13:37.939Z,98.31
2019-03-15T07:14:37.931Z,98.41
2019-03-15T07:15:37.924Z,98.16
2019-03-15T07:16:38.399Z,98.41
2019-03-15T07:17:37.906Z,98.27
2019-03-15T07:18:37.885Z,97.85
2019-03-15T07:19:37.874Z,97.85
2019-03-15T07:20:37.911Z,97.75
2019-03-15T07:21:37.851Z,98.06
2019-03-15T07:22:37.863Z,98.00
2019-03-15T07:23:37.829Z,98.57
2019-03-15T07:24:37.826Z,98.68
2019-03-15T07:25:37.812Z,98.57
2019-03-15T07:26:37.801Z,98.68
2019-03-15T07:27:37.809Z,98.93
2019-03-15T07:28:37.790Z,98.78
2019-03-15T07:29:37.763Z,98.10
2019-03-15T07:30:37.751Z,98.83
2019-03-15T07:31:37.740Z,98.99
2019-03-15T07:32:37.727Z,98.88
2019-03-15T07:33:37.716Z,98.68
2019-03-15T07:34:37.728Z,98.72
2019-03-15T07:35:37.699Z,98.62
2019-03-15T07:36:37.710Z,99.34
2019-03-15T07:37:37.670Z,99.24
2019-03-15T07:38:37.661Z,99.09
2019-03-15T07:39:37.650Z,98.93
2019-03-15T07:40:37.659Z,99.76
2019-03-15T07:41:39.461Z,99.71
2019-03-15T07:42:37.620Z,98.88
2019-03-15T07:43:37.600Z,99.24
2019-03-15T07:44:37.594Z,99.24
2019-03-15T07:45:37.606Z,99.55
2019-03-15T07:46:37.592Z,99.86
2019-03-15T07:47:37.558Z,99.55
2019-03-15T07:48:37.581Z,99.65
2019-03-15T07:49:37.570Z,99.65
2019-03-15T07:50:37.557Z,99.86
2019-03-15T07:51:37.526Z,99.55
2019-03-15T07:52:37.548Z,99.86
2019-03-15T07:53:37.492Z,99.82
2019-03-15T07:54:38.525Z,99.61
2019-03-15T07:55:37.479Z,99.51
2019-03-15T07:56:37.463Z,99.51
2019-03-15T07:57:37.452Z,99.71
2019-03-15T07:58:37.475Z,99.99
2019-03-15T07:59:37.424Z,99.71
2019-03-15T08:00:37.419Z,99.61
2019-03-15T08:01:37.406Z,99.61
2019-03-15T08:02:37.469Z,99.30
2019-03-15T08:03:37.396Z,99.71
2019-03-15T08:04:37.391Z,99.99
2019-03-15T08:05:38.230Z,99.99
2019-03-15T08:06:37.367Z,99.99
2019-03-15T08:07:44.410Z,99.99
2019-03-15T08:08:38.438Z,99.40
2019-03-15T08:09:37.317Z,99.92
2019-03-15T08:10:37.329Z,99.99
2019-03-15T08:11:37.292Z,99.99
2019-03-15T08:12:38.759Z,99.99
2019-03-15T08:13:37.266Z,99.66
2019-03-15T08:14:37.256Z,99.99
2019-03-15T08:15:37.249Z,99.61
2019-03-15T08:16:37.255Z,99.46
2019-03-15T08:17:37.223Z,99.99
2019-03-15T08:18:37.215Z,99.98
2019-03-15T08:19:37.201Z,99.82
2019-03-15T08:20:37.204Z,99.99
2019-03-15T08:21:37.179Z,99.99
2019-03-15T08:22:37.204Z,99.99
2019-03-15T08:23:37.181Z,99.66
2019-03-15T08:24:50.561Z,99.66
2019-03-15T08:25:38.127Z,99.46
2019-03-15T08:26:37.121Z,99.56
2019-03-15T08:27:37.107Z,99.46
2019-03-15T08:28:37.110Z,99.99
2019-03-15T08:29:37.107Z,99.99
2019-03-15T08:30:37.073Z,99.35
2019-03-15T08:31:37.066Z,99.35
2019-03-15T08:32:37.051Z,99.41
2019-03-15T08:33:37.040Z,99.62
2019-03-15T08:34:37.044Z,99.52
2019-03-15T08:35:37.015Z,99.62
2019-03-15T08:36:37.003Z,99.62
2019-03-15T08:37:36.994Z,99.99
2019-03-15T08:38:46.798Z,99.72
2019-03-15T08:39:38.013Z,99.72
2019-03-15T08:40:36.966Z,99.78
2019-03-15T08:41:36.960Z,99.99
2019-03-15T08:42:36.941Z,99.37
2019-03-15T08:43:36.928Z,99.26
2019-03-15T08:44:36.928Z,99.88
2019-03-15T08:45:36.925Z,99.47
2019-03-15T08:46:36.892Z,99.32
2019-03-15T08:47:36.911Z,99.99
2019-03-15T08:48:36.898Z,99.43
2019-03-15T08:49:36.866Z,99.63
2019-03-15T08:50:36.852Z,99.73
2019-03-15T08:51:36.922Z,99.99
2019-03-15T08:52:36.830Z,99.52
2019-03-15T08:53:36.838Z,99.84
2019-03-15T08:54:36.816Z,99.84
2019-03-15T08:55:39.756Z,99.69
2019-03-15T08:56:36.811Z,99.84
2019-03-15T08:57:36.787Z,99.58
2019-03-15T08:58:36.764Z,99.99
2019-03-15T08:59:36.746Z,99.38
2019-03-15T09:00:36.737Z,99.58
2019-03-15T09:01:36.755Z,99.48
2019-03-15T09:02:36.799Z,99.48
2019-03-15T09:03:36.724Z,99.48
2019-03-15T09:04:36.688Z,99.99
2019-03-15T09:05:36.683Z,99.38
2019-03-15T09:06:36.696Z,99.99
2019-03-15T09:07:36.686Z,99.99
2019-03-15T09:08:37.489Z,99.17
2019-03-15T09:09:36.754Z,99.17
2019-03-15T09:10:36.625Z,99.48
2019-03-15T09:11:36.611Z,99.99
2019-03-15T09:12:36.603Z,99.64
2019-03-15T09:13:36.593Z,99.43
2019-03-15T09:14:36.579Z,99.90
2019-03-15T09:15:36.585Z,99.74
2019-03-15T09:16:36.554Z,99.64
2019-03-15T09:17:36.543Z,99.33
2019-03-15T09:18:36.536Z,99.74
2019-03-15T09:19:36.522Z,99.99
2019-03-15T09:20:36.509Z,99.99
2019-03-15T09:21:36.523Z,99.64
2019-03-15T09:22:37.953Z,99.74
2019-03-15T09:23:36.475Z,99.90
2019-03-15T09:24:36.469Z,99.70
2019-03-15T09:25:36.458Z,99.60
2019-03-15T09:26:36.440Z,99.60
2019-03-15T09:27:36.447Z,99.49
2019-03-15T09:28:36.468Z,99.60
2019-03-15T09:29:36.408Z,99.80
2019-03-15T09:30:36.400Z,99.65
2019-03-15T09:31:47.078Z,99.34
2019-03-15T09:32:37.403Z,99.55
2019-03-15T09:33:36.450Z,99.65
2019-03-15T09:34:36.353Z,99.55
2019-03-15T09:35:36.346Z,99.65
2019-03-15T09:36:48.966Z,99.99
2019-03-15T09:37:37.317Z,99.96
2019-03-15T09:38:36.335Z,99.99
2019-03-15T09:39:36.299Z,99.99
2019-03-15T09:40:36.290Z,99.99
2019-03-15T09:41:39.966Z,99.99
2019-03-15T09:42:36.274Z,99.81
2019-03-15T09:43:36.251Z,99.91
2019-03-15T09:44:37.702Z,99.81
2019-03-15T09:45:37.174Z,99.77
2019-03-15T09:46:36.242Z,99.81
2019-03-15T09:47:36.236Z,99.99
2019-03-15T09:48:36.213Z,99.99
2019-03-15T09:49:36.184Z,99.77
2019-03-15T09:50:50.053Z,99.99
2019-03-15T09:51:37.159Z,99.56
2019-03-15T09:52:36.150Z,99.87
2019-03-15T09:53:36.221Z,99.99
2019-03-15T09:54:36.201Z,99.87
2019-03-15T09:55:36.124Z,99.99
2019-03-15T09:56:36.126Z,99.51
2019-03-15T09:57:36.100Z,99.93
2019-03-15T09:58:36.081Z,99.72
2019-03-15T09:59:36.085Z,99.82
2019-03-15T10:00:36.059Z,99.93
2019-03-15T10:01:36.128Z,99.99
2019-03-15T10:02:36.055Z,99.99
2019-03-15T10:03:36.022Z,99.99
2019-03-15T10:04:36.301Z,99.99
2019-03-15T10:05:36.020Z,99.99
2019-03-15T10:06:35.989Z,99.99
2019-03-15T10:07:38.741Z,99.99
2019-03-15T10:08:35.986Z,99.99
2019-03-15T10:09:45.692Z,99.99
2019-03-15T10:10:36.955Z,99.99
2019-03-15T10:11:35.938Z,99.99
2019-03-15T10:12:35.922Z,99.99
2019-03-15T10:13:35.911Z,99.99
2019-03-15T10:14:35.918Z,99.99
2019-03-15T10:15:35.909Z,99.99
2019-03-15T10:16:35.934Z,99.99
2019-03-15T10:17:35.895Z,99.99
2019-03-15T10:18:35.852Z,99.99
2019-03-15T10:19:35.842Z,99.99
2019-03-15T10:20:35.857Z,99.99
2019-03-15T10:21:35.813Z,99.99
2019-03-15T10:22:35.803Z,99.99
2019-03-15T10:23:35.791Z,99.99
2019-03-15T10:24:35.780Z,99.99
2019-03-15T10:25:46.185Z,99.99
2019-03-15T10:26:36.777Z,99.99
2019-03-15T10:27:35.751Z,99.99
2019-03-15T10:28:35.730Z,99.99
2019-03-15T10:29:35.718Z,99.22
2019-03-15T10:30:35.708Z,99.69
2019-03-15T10:31:35.695Z,99.63
2019-03-15T10:32:35.703Z,99.99
2019-03-15T10:33:35.671Z,99.49
2019-03-15T10:34:35.912Z,99.99
2019-03-15T10:35:35.648Z,99.38
2019-03-15T10:36:35.642Z,99.69
2019-03-15T10:37:35.628Z,99.75
2019-03-15T10:38:35.628Z,99.59
2019-03-15T10:39:35.598Z,99.44
2019-03-15T10:40:35.628Z,99.34
2019-03-15T10:41:38.030Z,99.34
2019-03-15T10:42:35.566Z,99.65
2019-03-15T10:43:35.607Z,99.34
2019-03-15T10:44:35.584Z,99.24
2019-03-15T10:45:35.528Z,99.13
2019-03-15T10:46:35.535Z,99.24
2019-03-15T10:47:35.514Z,99.03
2019-03-15T10:48:35.490Z,99.24
2019-03-15T10:49:35.478Z,99.13
2019-03-15T10:50:35.485Z,99.09
2019-03-15T10:51:35.485Z,99.03
2019-03-15T10:52:35.471Z,99.54
2019-03-15T10:53:35.462Z,99.03
2019-03-15T10:54:35.455Z,99.13
2019-03-15T10:55:35.406Z,99.09
2019-03-15T10:56:35.411Z,98.99
2019-03-15T10:57:35.380Z,98.99
2019-03-15T10:58:35.371Z,99.29
2019-03-15T10:59:35.357Z,99.60
2019-03-15T11:00:35.413Z,99.50
2019-03-15T11:01:35.340Z,99.29
2019-03-15T11:02:35.341Z,98.88
2019-03-15T11:03:35.311Z,98.63
2019-03-15T11:04:35.295Z,98.53
2019-03-15T11:05:35.286Z,98.68
2019-03-15T11:06:35.274Z,98.58
2019-03-15T11:07:35.281Z,99.45
2019-03-15T11:08:35.277Z,98.83
2019-03-15T11:09:35.233Z,99.25
2019-03-15T11:10:35.255Z,99.15
2019-03-15T11:11:35.217Z,99.15
2019-03-15T11:12:35.224Z,99.15
2019-03-15T11:13:35.244Z,99.04
2019-03-15T11:14:35.205Z,99.25
2019-03-15T11:15:35.187Z,99.15
2019-03-15T11:16:35.170Z,99.15
2019-03-15T11:17:35.146Z,99.15
2019-03-15T11:18:35.127Z,99.15
2019-03-15T11:19:35.115Z,98.94
2019-03-15T11:20:35.215Z,98.63
2019-03-15T11:21:35.116Z,99.15
2019-03-15T11:22:35.076Z,99.29
2019-03-15T11:23:35.155Z,99.29
2019-03-15T11:24:35.057Z,99.25
2019-03-15T11:25:35.130Z,99.15
2019-03-15T11:26:35.058Z,99.25
2019-03-15T11:27:35.018Z,99.25
2019-03-15T11:28:35.004Z,99.15
2019-03-15T11:29:35.008Z,98.74
2019-03-15T11:30:34.979Z,98.83
2019-03-15T11:31:34.968Z,98.74
2019-03-15T11:32:34.981Z,99.15
2019-03-15T11:33:34.970Z,99.29
2019-03-15T11:34:34.933Z,99.15
2019-03-15T11:35:34.927Z,98.94
2019-03-15T11:36:34.911Z,98.94
2019-03-15T11:37:34.898Z,98.83
2019-03-15T11:38:34.903Z,99.35
2019-03-15T11:39:34.871Z,99.04
2019-03-15T11:40:37.899Z,98.63
2019-03-15T11:41:34.849Z,98.83
2019-03-15T11:42:34.837Z,98.94
2019-03-15T11:43:34.823Z,98.63
2019-03-15T11:44:34.829Z,98.78
2019-03-15T11:45:34.804Z,98.68
2019-03-15T11:46:34.795Z,98.68
2019-03-15T11:47:50.299Z,98.94
2019-03-15T11:48:35.764Z,99.15
2019-03-15T11:49:34.752Z,99.04
2019-03-15T11:50:34.773Z,98.94
2019-03-15T11:51:34.726Z,98.94
2019-03-15T11:52:34.720Z,98.83
2019-03-15T11:53:34.702Z,98.53
2019-03-15T11:54:34.694Z,98.74
2019-03-15T11:55:34.687Z,98.63
2019-03-15T11:56:34.687Z,98.83
2019-03-15T11:57:34.657Z,98.83
2019-03-15T11:58:34.643Z,98.53
2019-03-15T11:59:36.203Z,98.74
2019-03-15T12:00:34.619Z,98.63
2019-03-15T12:01:37.620Z,98.74
2019-03-15T12:02:34.609Z,98.99
2019-03-15T12:03:34.584Z,98.79
2019-03-15T12:04:34.576Z,98.18
2019-03-15T12:05:34.558Z,98.18
2019-03-15T12:06:34.556Z,97.87
2019-03-15T12:07:34.536Z,97.56
2019-03-15T12:08:34.549Z,97.36
2019-03-15T12:09:34.537Z,97.66
2019-03-15T12:10:34.499Z,97.66
2019-03-15T12:11:34.502Z,98.18
2019-03-15T12:12:34.475Z,97.36
2019-03-15T12:13:34.463Z,97.25
2019-03-15T12:14:40.926Z,97.56
2019-03-15T12:15:36.465Z,97.77
2019-03-15T12:16:34.431Z,97.66
2019-03-15T12:17:34.417Z,97.25
2019-03-15T12:18:34.425Z,97.66
2019-03-15T12:19:34.410Z,97.56
2019-03-15T12:20:34.413Z,97.25
2019-03-15T12:21:34.367Z,97.87
2019-03-15T12:22:34.355Z,97.56
2019-03-15T12:23:34.351Z,97.46
2019-03-15T12:24:34.345Z,97.56
2019-03-15T12:25:34.327Z,97.36
2019-03-15T12:26:40.242Z,97.15
2019-03-15T12:27:35.311Z,96.44
2019-03-15T12:28:34.311Z,96.95
2019-03-15T12:29:34.273Z,96.95
2019-03-15T12:30:34.267Z,96.54
2019-03-15T12:31:34.252Z,95.98
2019-03-15T12:32:34.257Z,96.19
2019-03-15T12:33:34.226Z,96.19
2019-03-15T12:34:34.214Z,96.19
2019-03-15T12:35:34.220Z,96.19
2019-03-15T12:36:34.196Z,96.19
2019-03-15T12:37:34.177Z,95.98
2019-03-15T12:38:34.217Z,95.88
2019-03-15T12:39:34.157Z,95.88
2019-03-15T12:40:34.150Z,96.04
2019-03-15T12:41:34.150Z,95.12
2019-03-15T12:42:34.140Z,95.17
2019-03-15T12:43:34.113Z,95.47
2019-03-15T12:44:34.123Z,96.04
2019-03-15T12:45:34.108Z,96.08
2019-03-15T12:46:34.076Z,95.94
2019-03-15T12:47:34.063Z,96.08
2019-03-15T12:48:34.051Z,95.98
2019-03-15T12:49:34.068Z,95.78
2019-03-15T12:50:34.052Z,95.32
2019-03-15T12:51:34.048Z,95.32
2019-03-15T12:52:46.444Z,95.26